Time;durP1;ratioP1;P1;durP2;ratioP2;P2;SDS_P1;SDS_P2;PMS_P1;PMS_P2;Temp;Humidity;BMP_temperature;BMP_pressure;BME280_temperature;BME280_humidity;BME280_pressure;Samples;Min_cycle;Max_cycle;Signal;HPM_P1;HPM_P2
2022/09/27 00:02:57;;;;;;;30.90;18.40;;;;;;;8.17;98.65;97387.94;224303;1281;22488;-79
2022/09/27 00:09:30;;;;;;;34.10;18.90;;;;;;;8.13;98.69;97378.65;223675;1281;22575;-77
2022/09/27 00:15:34;;;;;;;;;;;;;;;;;;;;;
2022/09/27 00:22:05;;;;;;;;;;;;;;;;;;;;;
2022/09/27 00:28:43;;;;;;;;;;;;;;;;;;;;;
2022/09/27 00:35:23;;;;;;;;;;;;;;;;;;;;;
2022/09/27 00:48:28;;;;;;;33.20;18.30;;;;;;;7.85;99.12;97338.82;223495;1280;22574;-77
2022/09/27 01:01:19;;;;;;;;;;;;;;;;;;;;;
2022/09/27 01:07:41;;;;;;;35.90;20.40;;;;;;;7.78;99.52;97310.16;224249;1281;22489;-78
2022/09/27 01:14:08;;;;;;;;;;;;;;;;;;;;;
2022/09/27 01:20:25;;;;;;;32.00;19.20;;;;;;;7.71;99.33;97285.27;223525;1281;22552;-78
2022/09/27 01:27:22;;;;;;;30.20;17.30;;;;;;;7.69;99.67;97280.75;223835;1281;23019;-78
2022/09/27 01:41:17;;;;;;;27.30;14.00;;;;;;;7.64;99.66;97258.05;223000;1284;23569;-78
2022/09/27 01:48:16;;;;;;;;;;;;;;;;;;;;;
2022/09/27 01:54:52;;;;;;;;;;;;;;;;;;;;;
2022/09/27 02:08:52;;;;;;;;;;;;;;;;;;;;;
2022/09/27 02:15:46;;;;;;;28.00;16.70;;;;;;;7.07;99.05;97227.64;222986;1281;22730;-77
2022/09/27 02:29:49;;;;;;;27.00;15.60;;;;;;;6.88;99.15;97215.36;221692;1282;22644;-78
2022/09/27 02:43:04;;;;;;;;;;;;;;;;;;;;;
2022/09/27 02:50:03;;;;;;;29.70;17.40;;;;;;;6.60;99.22;97193.52;223203;1281;24310;-78
2022/09/27 02:56:47;;;;;;;27.10;15.20;;;;;;;6.50;99.11;97195.23;222125;1282;22679;-78
2022/09/27 03:10:15;;;;;;;31.20;16.40;;;;;;;6.31;99.21;97188.63;221930;1287;22709;-77
2022/09/27 03:23:02;;;;;;;18.30;11.90;;;;;;;6.14;99.06;97170.64;221205;1287;22489;-79
2022/09/27 03:29:22;;;;;;;33.40;16.90;;;;;;;6.06;99.16;97175.21;222942;1281;22538;-76
2022/09/27 03:42:36;;;;;;;;;;;;;;;;;;;;;
2022/09/27 03:49:34;;;;;;;;;;;;;;;;;;;;;
2022/09/27 03:56:31;;;;;;;25.50;14.80;;;;;;;5.85;99.57;97160.50;223670;1281;24245;-78
2022/09/27 04:03:18;;;;;;;24.90;14.30;;;;;;;5.83;99.72;97153.48;223538;1280;22564;-77
2022/09/27 04:10:05;;;;;;;20.80;12.90;;;;;;;5.84;99.88;97151.11;223116;1281;25323;-78
2022/09/27 04:16:37;;;;;;;23.90;13.60;;;;;;;5.86;99.92;97145.40;223624;1281;22589;-78
2022/09/27 04:23:02;;;;;;;28.20;14.40;;;;;;;5.81;100.00;97135.51;223632;1282;22549;-79
2022/09/27 04:29:46;;;;;;;;;;;;;;;;;;;;;
2022/09/27 04:42:39;;;;;;;22.10;13.20;;;;;;;5.79;100.00;97124.77;223162;1281;22540;-77
2022/09/27 04:49:20;;;;;;;27.40;16.00;;;;;;;5.75;99.98;97117.94;223498;1281;22534;-78
2022/09/27 04:55:58;;;;;;;24.70;15.30;;;;;;;5.71;100.00;97118.70;223274;1281;23937;-79
2022/09/27 05:09:36;;;;;;;21.80;13.50;;;;;;;5.81;100.00;97110.78;224124;1281;22687;-77
2022/09/27 05:16:05;;;;;;;19.40;12.00;;;;;;;5.90;100.00;97114.76;224030;1281;22611;-78
2022/09/27 05:22:57;;;;;;;18.60;10.20;;;;;;;6.02;100.00;97110.48;223651;1281;22781;-76
2022/09/27 06:02:27;;;;;;;;;;;;;;;;;;;;;
2022/09/27 06:09:05;;;;;;;24.70;15.80;;;;;;;7.87;100.00;97085.86;219891;1281;23996;-77
2022/09/27 06:15:32;;;;;;;28.40;17.30;;;;;;;8.14;100.00;97089.98;220496;1282;26267;-76
2022/09/27 06:22:08;;;;;;;;;;;;;;;;;;;;;
2022/09/27 06:28:50;;;;;;;29.00;18.30;;;;;;;8.59;100.00;97083.69;218874;1284;25465;-78
2022/09/27 06:34:29;;;;;;;;;;;;;;;;;;;;;
2022/09/27 06:40:07;;;;;;;;;;;;;;;;;;;;;
2022/09/27 06:47:10;;;;;;;25.70;16.10;;;;;;;9.51;100.00;97075.01;217976;1287;22580;-76
2022/09/27 06:53:29;;;;;;;18.00;12.10;;;;;;;9.87;100.00;97066.37;218212;1287;24237;-79
2022/09/27 07:06:45;;;;;;;21.50;14.50;;;;;;;10.75;100.00;97064.61;217986;1287;25379;-83
2022/09/27 07:19:43;;;;;;;16.80;11.80;;;;;;;11.52;100.00;97062.42;218272;1287;24236;-80
2022/09/27 07:26:01;;;;;;;17.10;12.80;;;;;;;11.87;100.00;97063.67;218282;1287;25331;-78
2022/09/27 07:32:37;;;;;;;22.10;13.10;;;;;;;12.22;100.00;97065.48;218071;1285;24255;-79
2022/09/27 07:44:40;;;;;;;16.80;11.50;;;;;;;12.96;99.78;97060.35;217899;1287;24644;-77
2022/09/27 07:51:48;;;;;;;;;;;;;;;;;;;;;
2022/09/27 07:57:34;;;;;;;14.90;10.20;;;;;;;13.79;98.35;97054.11;217792;1290;22691;-77
2022/09/27 08:03:25;;;;;;;14.60;10.20;;;;;;;14.08;97.57;97053.48;218207;1286;25375;-77
2022/09/27 08:09:55;;;;;;;13.10;9.50;;;;;;;14.42;96.99;97051.08;218193;1286;22627;-79
2022/09/27 08:15:57;;;;;;;10.10;7.80;;;;;;;14.75;96.19;97040.16;218108;1285;25353;-78
2022/09/27 08:21:03;;;;;;;11.30;8.50;;;;;;;14.95;95.21;97042.91;218173;1287;24723;-79
2022/09/27 08:27:00;;;;;;;12.40;9.10;;;;;;;15.32;95.35;97045.59;218158;1287;22581;-76
2022/09/27 08:32:21;;;;;;;13.40;7.40;;;;;;;15.80;94.77;97039.19;217604;1290;22735;-77
2022/09/27 08:38:01;;;;;;;;;;;;;;;;;;;;;
2022/09/27 08:44:03;;;;;;;10.80;6.40;;;;;;;16.39;91.76;97030.13;217469;1290;25394;-76
2022/09/27 08:49:35;;;;;;;13.10;7.00;;;;;;;16.56;90.98;97028.23;217850;1290;22576;-76
2022/09/27 08:54:50;;;;;;;8.50;5.90;;;;;;;16.76;89.97;97023.33;217703;1290;25277;-77
2022/09/27 09:00:26;;;;;;;9.20;4.90;;;;;;;16.94;88.79;97021.65;217536;1289;22693;-77
2022/09/27 09:05:34;;;;;;;5.80;3.90;;;;;;;17.09;87.71;97019.78;218210;1287;23992;-76
2022/09/27 09:16:44;;;;;;;5.20;4.00;;;;;;;17.47;86.22;97011.79;218536;1287;22685;-76
2022/09/27 09:22:09;;;;;;;4.10;2.80;;;;;;;17.65;85.53;97007.72;218033;1287;22642;-76
2022/09/27 09:27:23;;;;;;;6.20;3.70;;;;;;;17.84;84.42;97000.32;218161;1287;22571;-78
2022/09/27 09:32:49;;;;;;;5.50;3.70;;;;;;;18.06;83.86;96993.23;218360;1287;23901;-77
2022/09/27 09:37:58;;;;;;;4.40;3.30;;;;;;;18.23;82.92;96982.70;217797;1290;25891;-77
2022/09/27 09:43:09;;;;;;;4.10;3.50;;;;;;;18.28;81.88;96975.96;221053;1287;22559;-78
2022/09/27 09:48:56;;;;;;;3.60;3.10;;;;;;;18.39;81.58;96973.75;221556;1287;22550;-79
2022/09/27 09:54:27;;;;;;;3.80;3.30;;;;;;;18.56;78.81;96967.60;221233;1287;22493;-79
2022/09/27 09:59:44;;;;;;;5.70;3.30;;;;;;;18.66;79.55;96958.92;221686;1287;22675;-78
2022/09/27 10:04:49;;;;;;;5.80;3.00;;;;;;;18.85;79.25;96959.95;223397;1287;22492;-79
2022/09/27 10:10:00;;;;;;;3.00;2.70;;;;;;;18.92;78.27;96958.04;222919;1287;24219;-77
2022/09/27 10:15:46;;;;;;;4.00;3.20;;;;;;;18.88;77.13;96950.58;223004;1287;22588;-78
2022/09/27 10:20:56;;;;;;;5.60;3.00;;;;;;;18.92;75.72;96941.45;223969;1285;23018;-77
2022/09/27 10:26:09;;;;;;;4.80;2.70;;;;;;;18.88;74.99;96938.11;223764;1287;22545;-77
2022/09/27 10:31:26;;;;;;;4.20;3.50;;;;;;;18.69;72.77;96930.03;223984;1285;22534;-77
2022/09/27 10:37:02;;;;;;;5.70;3.70;;;;;;;18.74;74.36;96929.72;223720;1287;22827;-79
2022/09/27 10:42:41;;;;;;;4.20;3.20;;;;;;;19.02;74.74;96927.17;223840;1287;23668;-78
2022/09/27 10:47:48;;;;;;;4.00;3.40;;;;;;;19.15;74.11;96926.55;223271;1287;23757;-76
2022/09/27 10:53:17;;;;;;;5.10;3.80;;;;;;;19.22;73.62;96926.84;223180;1287;22600;-77
2022/09/27 10:58:32;;;;;;;6.10;4.00;;;;;;;19.05;73.11;96929.04;223814;1286;22650;-76
2022/09/27 11:03:45;;;;;;;7.80;4.20;;;;;;;18.88;73.29;96926.63;222815;1287;24041;-78
2022/09/27 11:09:23;;;;;;;6.30;3.90;;;;;;;18.70;73.54;96924.67;223748;1287;22784;-78
2022/09/27 11:14:30;;;;;;;5.10;4.10;;;;;;;18.57;73.67;96922.20;223674;1285;22661;-79
2022/09/27 11:19:42;;;;;;;7.30;4.50;;;;;;;18.42;73.76;96913.27;221255;1285;22583;-77
2022/09/27 11:25:20;;;;;;;5.40;4.00;;;;;;;18.27;73.96;96909.84;221626;1287;24255;-80
2022/09/27 11:30:43;;;;;;;7.00;4.50;;;;;;;18.21;74.62;96906.13;221022;1285;22557;-76
2022/09/27 11:36:47;;;;;;;7.00;4.30;;;;;;;18.22;75.13;96902.55;218640;1285;22726;-78
2022/09/27 11:42:42;;;;;;;5.30;4.00;;;;;;;18.17;74.73;96890.39;218464;1285;24308;-78
2022/09/27 11:48:47;;;;;;;4.40;3.90;;;;;;;18.09;75.32;96891.46;218529;1287;24465;-77
2022/09/27 11:54:28;;;;;;;5.10;4.60;;;;;;;17.80;74.70;96889.34;218356;1285;22566;-78
2022/09/27 11:59:50;;;;;;;6.20;4.50;;;;;;;17.65;75.53;96883.02;217937;1290;22591;-78
2022/09/27 12:05:51;;;;;;;5.20;3.60;;;;;;;17.71;76.24;96882.41;217898;1290;22581;-79
2022/09/27 12:11:12;;;;;;;7.80;4.30;;;;;;;17.96;76.65;96878.95;217809;1290;25356;-77
2022/09/27 12:16:18;;;;;;;4.90;4.10;;;;;;;18.15;76.56;96882.10;217556;1290;22585;-76
2022/09/27 12:21:41;;;;;;;6.80;4.00;;;;;;;18.23;76.39;96882.66;217584;1290;25887;-76
2022/09/27 12:27:14;;;;;;;;;;;;;;;;;;;;;
2022/09/27 12:32:37;;;;;;;4.80;3.50;;;;;;;18.19;76.33;96875.23;218376;1285;23236;-77
2022/09/27 12:38:16;;;;;;;6.70;4.00;;;;;;;18.20;76.26;96873.30;218369;1285;23840;-76
2022/09/27 12:43:26;;;;;;;4.90;4.30;;;;;;;18.22;76.08;96875.85;218306;1287;22553;-77
2022/09/27 12:49:21;;;;;;;3.70;3.20;;;;;;;17.96;75.67;96876.63;218558;1282;22692;-77
2022/09/27 12:55:26;;;;;;;4.10;3.30;;;;;;;17.46;75.78;96879.46;219118;1282;25273;-76
2022/09/27 13:02:01;;;;;;;5.30;3.90;;;;;;;16.93;76.98;96875.61;219615;1281;22603;-77
2022/09/27 13:07:54;;;;;;;7.70;4.20;;;;;;;16.69;77.95;96874.11;219394;1281;23281;-78
2022/09/27 13:13:00;;;;;;;5.80;4.70;;;;;;;16.43;78.77;96879.85;220139;1282;25306;-77
2022/09/27 13:18:58;;;;;;;6.00;4.50;;;;;;;16.26;79.64;96880.61;219701;1281;22802;-78
2022/09/27 13:24:48;;;;;;;5.00;3.60;;;;;;;15.99;80.35;96877.12;219413;1281;22572;-76
2022/09/27 13:30:40;;;;;;;8.00;3.70;;;;;;;15.62;82.10;96875.99;219615;1281;22579;-75
2022/09/27 13:36:21;;;;;;;6.10;3.30;;;;;;;15.22;83.19;96889.61;219237;1281;22692;-77
2022/09/27 13:42:08;;;;;;;2.50;2.00;;;;;;;14.66;82.97;96902.16;219693;1281;22555;-76
2022/09/27 13:47:17;;;;;;;4.20;2.60;;;;;;;14.08;83.10;96907.41;219194;1281;22587;-77
2022/09/27 13:52:41;;;;;;;2.60;1.20;;;;;;;13.74;83.78;96916.92;219501;1278;179399;-78
2022/09/27 13:58:02;;;;;;;3.20;1.80;;;;;;;13.42;83.42;96923.31;219432;1281;22737;-78
2022/09/27 14:03:21;;;;;;;4.30;1.70;;;;;;;12.97;83.63;96924.63;219590;1281;24346;-78
2022/09/27 14:08:40;;;;;;;3.00;1.90;;;;;;;12.65;84.56;96929.87;219660;1281;23230;-78
2022/09/27 14:13:48;;;;;;;3.00;2.00;;;;;;;12.38;85.63;96945.55;219594;1281;22569;-79
2022/09/27 14:19:21;;;;;;;3.40;2.10;;;;;;;12.19;86.75;96955.73;219427;1281;25644;-78
2022/09/27 14:24:52;;;;;;;2.60;1.90;;;;;;;12.09;87.89;96962.08;219437;1281;23050;-79
2022/09/27 14:30:17;;;;;;;2.10;1.50;;;;;;;11.98;89.21;96966.13;219571;1281;24327;-79
2022/09/27 14:40:53;;;;;;;6.80;4.00;;;;;;;11.82;89.70;96955.39;219398;1281;24241;-78
2022/09/27 14:46:46;;;;;;;3.30;2.50;;;;;;;11.74;90.09;96947.21;219378;1281;22948;-78
2022/09/27 14:51:55;;;;;;;3.10;1.90;;;;;;;11.67;90.94;96946.63;219361;1281;22625;-79
2022/09/27 14:56:59;;;;;;;4.40;1.90;;;;;;;11.60;91.54;96942.89;219561;1281;25479;-78
2022/09/27 15:02:27;;;;;;;5.90;3.40;;;;;;;11.57;92.24;96933.92;219378;1281;22937;-79
2022/09/27 15:08:22;;;;;;;2.70;2.20;;;;;;;11.60;92.48;96932.33;219459;1281;25573;-78
2022/09/27 15:13:33;;;;;;;4.60;2.70;;;;;;;11.67;93.03;96933.28;219396;1281;22612;-78
2022/09/27 15:18:42;;;;;;;4.90;3.30;;;;;;;11.70;93.14;96921.73;219373;1281;24150;-81
2022/09/27 15:23:44;;;;;;;4.10;3.00;;;;;;;11.74;93.34;96919.90;219685;1281;22568;-78
2022/09/27 15:28:53;;;;;;;11.00;7.90;;;;;;;11.76;93.73;96925.64;219532;1281;25417;-78
2022/09/27 15:33:57;;;;;;;13.60;9.10;;;;;;;11.81;93.92;96918.20;219329;1281;23036;-79
2022/09/27 15:39:09;;;;;;;8.20;5.60;;;;;;;11.79;94.00;96932.62;219553;1281;25336;-79
2022/09/27 15:44:42;;;;;;;6.10;4.60;;;;;;;11.69;94.45;96939.02;219376;1281;24340;-78
2022/09/27 15:49:52;;;;;;;6.70;4.30;;;;;;;11.56;94.87;96948.61;219001;1281;24799;-77
2022/09/27 15:54:55;;;;;;;6.80;4.40;;;;;;;11.47;95.04;96955.61;219059;1281;25381;-78
2022/09/27 15:59:57;;;;;;;6.10;4.70;;;;;;;11.38;95.38;96947.41;219384;1281;22738;-78
2022/09/27 16:05:04;;;;;;;9.10;5.30;;;;;;;11.37;95.62;96951.25;219435;1281;24419;-79
2022/09/27 16:10:28;;;;;;;10.80;7.30;;;;;;;11.33;96.02;96951.84;219234;1281;22547;-78
2022/09/27 16:15:43;;;;;;;13.50;8.60;;;;;;;11.27;96.00;96952.27;219103;1281;22634;-77
2022/09/27 16:20:49;;;;;;;16.80;9.60;;;;;;;11.21;96.53;96955.01;219322;1280;22547;-78
2022/09/27 16:26:37;;;;;;;16.30;9.50;;;;;;;11.17;96.71;96953.27;219421;1281;25319;-77
2022/09/27 16:32:11;;;;;;;;;;;;;;;;;;;;;
2022/09/27 16:37:31;;;;;;;15.00;8.80;;;;;;;11.09;97.30;96966.98;219483;1281;24378;-78
2022/09/27 16:42:36;;;;;;;18.20;10.10;;;;;;;11.04;97.63;96963.45;219331;1281;22600;-76
2022/09/27 16:47:39;;;;;;;16.70;9.70;;;;;;;11.00;98.21;96973.28;219447;1281;25457;-76
2022/09/27 16:52:52;;;;;;;;;;;;;;;;;;;;;
2022/09/27 16:58:06;;;;;;;15.40;10.00;;;;;;;10.90;98.36;96968.39;219304;1281;22579;-77
2022/09/27 17:03:32;;;;;;;14.20;10.30;;;;;;;10.86;98.94;96961.73;219293;1281;26517;-77
2022/09/27 17:08:45;;;;;;;17.10;11.00;;;;;;;10.83;98.96;96975.32;219457;1281;22557;-78
2022/09/27 17:13:48;;;;;;;16.60;11.90;;;;;;;10.79;99.47;96975.45;219224;1281;25436;-78
2022/09/27 17:19:10;;;;;;;17.40;10.40;;;;;;;10.75;99.51;96977.55;218917;1284;24926;-78
2022/09/27 17:24:14;;;;;;;14.70;10.40;;;;;;;10.73;99.85;96978.45;218685;1284;22609;-77
2022/09/27 17:29:17;;;;;;;13.60;9.10;;;;;;;10.72;99.89;96974.31;218433;1284;22749;-77
2022/09/27 17:34:22;;;;;;;12.20;9.00;;;;;;;10.72;99.97;96973.61;218398;1284;24894;-78
2022/09/27 17:39:25;;;;;;;13.50;8.50;;;;;;;10.71;99.99;96977.63;218561;1284;22586;-77
2022/09/27 17:44:28;;;;;;;12.40;8.60;;;;;;;10.69;99.99;96972.46;218301;1284;26224;-76
2022/09/27 17:55:05;;;;;;;16.10;11.30;;;;;;;10.67;99.98;96983.01;219124;1281;24790;-78
2022/09/27 18:00:21;;;;;;;20.80;13.00;;;;;;;10.67;100.00;96987.91;219361;1281;22541;-77
2022/09/27 18:05:24;;;;;;;17.70;12.30;;;;;;;10.68;100.00;96991.56;219221;1281;24707;-77
2022/09/27 18:10:28;;;;;;;21.90;13.90;;;;;;;10.70;100.00;96995.30;219109;1281;22637;-78
2022/09/27 18:15:31;;;;;;;24.70;15.50;;;;;;;10.70;100.00;96995.76;219249;1281;22590;-78
2022/09/27 18:20:34;;;;;;;20.20;12.40;;;;;;;10.70;100.00;97005.24;219287;1281;22572;-77
2022/09/27 18:25:40;;;;;;;16.40;10.10;;;;;;;10.69;100.00;97002.61;219260;1281;24330;-78
2022/09/27 18:30:45;;;;;;;15.50;9.10;;;;;;;10.69;100.00;97004.02;219347;1281;22590;-78
2022/09/27 18:35:48;;;;;;;14.80;9.00;;;;;;;10.69;100.00;97011.23;219435;1281;23822;-77
2022/09/27 18:40:56;;;;;;;12.40;7.90;;;;;;;10.69;100.00;97009.30;219426;1281;24127;-77
2022/09/27 18:46:05;;;;;;;14.00;8.10;;;;;;;10.69;100.00;97010.92;219581;1281;22558;-77
2022/09/27 18:51:42;;;;;;;11.60;6.80;;;;;;;10.70;100.00;97021.89;219199;1281;23238;-77
2022/09/27 18:57:33;;;;;;;12.60;7.50;;;;;;;10.69;100.00;97020.34;219614;1281;22620;-76
2022/09/27 19:02:56;;;;;;;11.30;7.50;;;;;;;10.70;100.00;97017.70;219402;1281;24458;-77
2022/09/27 19:08:10;;;;;;;11.90;8.30;;;;;;;10.69;100.00;97020.44;219300;1281;22560;-77
2022/09/27 19:13:23;;;;;;;11.40;7.60;;;;;;;10.68;100.00;97021.30;219351;1281;22581;-77
2022/09/27 19:19:03;;;;;;;11.80;6.60;;;;;;;10.66;100.00;97024.13;218831;1282;22551;-77
2022/09/27 19:24:17;;;;;;;14.50;7.40;;;;;;;10.64;100.00;97025.29;219238;1283;26690;-77
2022/09/27 19:29:22;;;;;;;12.20;7.40;;;;;;;10.61;100.00;97022.54;219424;1281;25255;-77
2022/09/27 19:34:36;;;;;;;12.00;6.50;;;;;;;10.57;100.00;97018.34;219282;1281;24340;-77
2022/09/27 19:39:40;;;;;;;9.90;6.30;;;;;;;10.55;100.00;97021.56;219167;1281;25423;-78
2022/09/27 19:44:45;;;;;;;8.60;5.70;;;;;;;10.51;100.00;97016.36;219073;1281;25457;-78
2022/09/27 19:49:50;;;;;;;8.00;5.00;;;;;;;10.48;100.00;97013.04;219429;1281;25253;-78
2022/09/27 19:54:53;;;;;;;7.50;4.60;;;;;;;10.44;100.00;97015.79;219191;1281;24420;-77
2022/09/27 19:59:55;;;;;;;7.00;4.20;;;;;;;10.41;100.00;97015.51;218843;1281;22595;-78
2022/09/27 20:04:57;;;;;;;6.60;4.00;;;;;;;10.36;100.00;97030.63;218506;1284;25266;-77
2022/09/27 20:10:10;;;;;;;5.90;3.70;;;;;;;10.30;99.99;97038.04;219337;1281;24395;-77
2022/09/27 20:15:14;;;;;;;5.00;3.60;;;;;;;10.26;100.00;97032.63;219580;1281;22598;-77
2022/09/27 20:20:16;;;;;;;6.10;3.20;;;;;;;10.23;100.00;97030.98;219101;1282;22582;-77
2022/09/27 20:25:19;;;;;;;4.80;3.30;;;;;;;10.20;100.00;97032.47;218856;1284;24334;-77
2022/09/27 20:30:23;;;;;;;4.60;3.00;;;;;;;10.16;100.00;97043.64;219300;1281;22729;-78
2022/09/27 20:35:54;;;;;;;4.60;3.00;;;;;;;10.10;100.00;97047.88;219220;1281;22559;-77
2022/09/27 20:41:09;;;;;;;;;;;;;;;;;;;;;
2022/09/27 20:46:46;;;;;;;5.40;3.60;;;;;;;10.06;100.00;97041.02;219199;1281;22746;-77
2022/09/27 20:52:41;;;;;;;6.10;3.40;;;;;;;9.98;99.93;97045.45;219474;1281;23842;-76
2022/09/27 20:58:04;;;;;;;5.20;3.40;;;;;;;9.90;99.96;97047.15;219326;1281;22722;-76
2022/09/27 21:03:07;;;;;;;6.30;3.40;;;;;;;9.81;100.00;97044.91;219387;1281;24407;-77
2022/09/27 21:08:42;;;;;;;4.90;3.10;;;;;;;9.75;100.00;97033.69;219034;1281;22550;-77
2022/09/27 21:14:28;;;;;;;5.60;3.40;;;;;;;9.71;100.00;97037.27;219445;1281;22551;-77
2022/09/27 21:20:32;;;;;;;5.30;3.30;;;;;;;9.64;100.00;97042.13;219386;1282;25397;-77
2022/09/27 21:32:00;;;;;;;4.60;3.30;;;;;;;9.53;100.00;97055.62;218957;1281;22560;-77
2022/09/27 21:37:03;;;;;;;6.10;3.40;;;;;;;9.49;100.00;97056.46;219287;1281;25486;-76
2022/09/27 21:42:45;;;;;;;4.90;3.40;;;;;;;9.43;100.00;97062.82;218559;1284;25457;-77
2022/09/27 21:48:41;;;;;;;5.00;3.10;;;;;;;9.40;100.00;97063.92;218766;1284;23331;-78
2022/09/27 21:54:04;;;;;;;;;;;;;;;;;;;;;
2022/09/27 21:59:45;;;;;;;8.90;4.10;;;;;;;9.30;100.00;97064.13;218187;1287;24279;-77
2022/09/27 22:06:09;;;;;;;7.40;3.60;;;;;;;9.25;100.00;97065.61;218744;1284;22796;-78
2022/09/27 22:11:36;;;;;;;8.50;3.90;;;;;;;9.24;100.00;97072.36;218927;1281;22572;-77
2022/09/27 22:16:58;;;;;;;;;;;;;;;;;;;;;
2022/09/27 22:22:51;;;;;;;6.20;3.90;;;;;;;9.30;100.00;97074.89;219411;1281;25457;-77
2022/09/27 22:28:15;;;;;;;6.90;3.10;;;;;;;9.30;100.00;97068.88;219263;1281;22573;-78
2022/09/27 22:33:55;;;;;;;;;;;;;;;9.27;100.00;97065.78;219342;1282;24461;-77
2022/09/27 22:40:05;;;;;;;7.20;3.40;;;;;;;9.17;100.00;97058.73;219291;1281;22667;-77
2022/09/27 22:45:25;;;;;;;7.60;3.60;;;;;;;9.03;99.98;97059.40;219171;1282;24240;-77
2022/09/27 22:51:13;;;;;;;5.90;3.10;;;;;;;8.92;99.99;97050.92;218980;1281;25600;-77
2022/09/27 22:56:31;;;;;;;6.10;3.50;;;;;;;8.79;100.00;97047.06;219443;1281;25557;-76
2022/09/27 23:01:57;;;;;;;6.10;3.60;;;;;;;8.69;100.00;97051.83;219358;1281;24118;-77
2022/09/27 23:07:34;;;;;;;6.00;3.20;;;;;;;8.56;99.99;97052.08;218962;1281;22705;-78
2022/09/27 23:13:01;;;;;;;4.10;3.00;;;;;;;8.46;100.00;97056.11;219401;1281;22554;-77
2022/09/27 23:18:06;;;;;;;4.80;2.80;;;;;;;8.34;100.00;97060.39;219461;1281;24371;-77
2022/09/27 23:29:36;;;;;;;4.70;2.60;;;;;;;8.21;100.00;97057.01;219475;1281;22585;-76
2022/09/27 23:35:49;;;;;;;4.00;2.90;;;;;;;8.22;100.00;97056.23;219236;1281;22573;-76
2022/09/27 23:41:14;;;;;;;5.80;3.20;;;;;;;8.27;100.00;97064.36;219092;1281;22949;-77
2022/09/27 23:47:01;;;;;;;4.90;2.70;;;;;;;8.33;100.00;97061.17;219352;1281;22645;-76
2022/09/27 23:52:45;;;;;;;4.60;3.30;;;;;;;8.38;100.00;97062.27;219034;1281;22697;-78
2022/09/27 23:57:51;;;;;;;5.30;3.40;;;;;;;8.41;100.00;97058.63;219297;1281;23244;-76
